createdAt,value
2022-12-01T00:01:12.548Z,49.20
2022-12-01T00:03:39.590Z,51.60
2022-12-01T00:06:10.337Z,49.60
2022-12-01T00:08:37.164Z,51.53
2022-12-01T00:11:09.830Z,52.53
2022-12-01T00:13:36.677Z,60.50
2022-12-01T00:16:16.940Z,50.30
2022-12-01T00:18:43.692Z,57.33
2022-12-01T00:21:15.303Z,51.67
2022-12-01T00:23:49.953Z,57.27
2022-12-01T00:26:17.925Z,51.43
2022-12-01T00:28:48.042Z,50.97
2022-12-01T00:31:14.582Z,52.20
2022-12-01T00:33:41.044Z,52.60
2022-12-01T00:36:07.724Z,49.03
2022-12-01T00:38:34.820Z,47.90
2022-12-01T00:41:02.815Z,50.80
2022-12-01T00:43:29.829Z,49.67
2022-12-01T00:45:56.638Z,56.77
2022-12-01T00:48:23.782Z,48.07
2022-12-01T00:50:52.097Z,48.77
2022-12-01T00:53:24.537Z,53.13
2022-12-01T00:55:52.084Z,43.87
2022-12-01T00:58:18.447Z,48.70
2022-12-01T01:00:44.878Z,53.10
2022-12-01T01:03:11.367Z,59.80
2022-12-01T01:05:42.641Z,60.90
2022-12-01T01:08:10.968Z,51.53
2022-12-01T01:10:42.725Z,45.43
2022-12-01T01:13:09.868Z,49.40
2022-12-01T01:15:36.539Z,43.07
2022-12-01T01:18:03.358Z,47.70
2022-12-01T01:20:29.824Z,44.47
2022-12-01T01:22:56.388Z,42.50
2022-12-01T01:25:22.904Z,39.30
2022-12-01T01:27:49.711Z,40.07
2022-12-01T01:30:16.399Z,47.90
2022-12-01T01:32:42.974Z,41.93
2022-12-01T01:35:09.896Z,45.93
2022-12-01T01:37:36.312Z,44.47
2022-12-01T01:40:02.889Z,47.60
2022-12-01T01:42:29.407Z,44.27
2022-12-01T01:44:57.940Z,42.47
2022-12-01T01:47:32.881Z,39.57
2022-12-01T01:50:06.191Z,44.47
2022-12-01T01:52:35.890Z,52.03
2022-12-01T01:55:02.839Z,47.67
2022-12-01T01:57:33.270Z,50.27
2022-12-01T02:00:07.987Z,48.33
2022-12-01T02:02:40.663Z,55.20
2022-12-01T02:05:13.558Z,58.13
2022-12-01T02:07:41.383Z,60.97
2022-12-01T02:10:11.041Z,55.50
2022-12-01T02:13:16.552Z,51.23
2022-12-01T02:16:01.758Z,63.43
2022-12-01T02:18:35.352Z,54.80
2022-12-01T02:21:20.679Z,65.10
2022-12-01T02:24:08.990Z,58.40
2022-12-01T02:27:01.365Z,59.40
2022-12-01T02:29:27.746Z,65.67
2022-12-01T02:32:04.040Z,64.20
2022-12-01T02:34:41.313Z,65.50
2022-12-01T02:37:41.825Z,63.97
2022-12-01T02:40:31.403Z,63.93
2022-12-01T02:43:07.889Z,70.67
2022-12-01T02:45:54.753Z,68.70
2022-12-01T02:48:28.276Z,67.80
2022-12-01T02:50:59.754Z,67.40
2022-12-01T02:53:26.399Z,68.43
2022-12-01T02:55:55.128Z,74.50
2022-12-01T02:58:22.186Z,70.73
2022-12-01T03:01:06.704Z,74.83
2022-12-01T03:03:45.044Z,67.87
2022-12-01T03:06:23.956Z,74.93
2022-12-01T03:09:09.299Z,66.53
2022-12-01T03:11:56.698Z,64.93
2022-12-01T03:14:34.334Z,65.37
2022-12-01T03:17:07.578Z,75.17
2022-12-01T03:19:41.682Z,68.43
2022-12-01T03:22:20.033Z,63.83
2022-12-01T03:24:49.379Z,65.67
2022-12-01T03:27:18.607Z,59.63
2022-12-01T03:29:48.649Z,57.37
2022-12-01T03:32:50.353Z,63.57
2022-12-01T03:35:23.208Z,65.87
2022-12-01T03:37:57.205Z,72.83
2022-12-01T03:40:27.219Z,62.77
2022-12-01T03:42:59.722Z,79.70
2022-12-01T03:45:56.134Z,66.60
2022-12-01T03:48:24.254Z,64.33
2022-12-01T03:51:16.162Z,69.37
2022-12-01T03:54:07.499Z,64.37
2022-12-01T03:56:43.803Z,63.73
2022-12-01T03:59:11.417Z,69.77
2022-12-01T04:01:38.013Z,64.23
2022-12-01T04:04:11.562Z,73.33
2022-12-01T04:06:40.395Z,62.03
2022-12-01T04:09:06.861Z,84.07
2022-12-01T04:11:51.849Z,72.03
2022-12-01T04:14:18.247Z,80.93
2022-12-01T04:16:44.649Z,71.37
2022-12-01T04:19:11.604Z,75.20
2022-12-01T04:21:38.026Z,62.80
2022-12-01T04:24:04.721Z,65.20
2022-12-01T04:26:34.084Z,62.37
2022-12-01T04:29:01.969Z,58.33
2022-12-01T04:31:29.034Z,54.43
2022-12-01T04:33:56.614Z,55.87
2022-12-01T04:36:29.345Z,77.63
2022-12-01T04:38:55.840Z,61.13
2022-12-01T04:41:22.291Z,59.50
2022-12-01T04:43:48.888Z,55.07
2022-12-01T04:46:15.929Z,51.73
2022-12-01T04:48:43.255Z,55.93
2022-12-01T04:51:09.693Z,56.83
2022-12-01T04:53:37.110Z,56.13
2022-12-01T04:56:04.613Z,55.80
2022-12-01T04:58:32.636Z,56.77
2022-12-01T05:01:04.128Z,58.43
2022-12-01T05:03:30.639Z,53.30
2022-12-01T05:06:05.299Z,52.63
2022-12-01T05:08:32.079Z,51.80
2022-12-01T05:10:58.525Z,49.40
2022-12-01T05:13:25.061Z,49.50
2022-12-01T05:15:51.888Z,46.83
2022-12-01T05:18:18.854Z,53.20
2022-12-01T05:20:57.330Z,49.23
2022-12-01T05:23:28.961Z,48.37
2022-12-01T05:25:55.794Z,51.07
2022-12-01T05:28:24.530Z,49.60
2022-12-01T05:30:51.560Z,46.57
2022-12-01T05:33:18.708Z,41.30
2022-12-01T05:35:45.138Z,43.40
2022-12-01T05:38:11.584Z,42.87
2022-12-01T05:40:38.119Z,48.63
2022-12-01T05:43:05.190Z,47.23
2022-12-01T05:45:31.897Z,46.63
2022-12-01T05:47:59.915Z,42.70
2022-12-01T05:50:28.554Z,41.53
2022-12-01T05:52:55.046Z,44.03
2022-12-01T05:55:21.665Z,45.73
2022-12-01T05:57:48.239Z,44.90
2022-12-01T06:00:15.278Z,48.37
2022-12-01T06:02:42.481Z,49.20
2022-12-01T06:05:09.335Z,42.10
2022-12-01T06:07:36.048Z,49.13
2022-12-01T06:10:03.833Z,47.27
2022-12-01T06:12:30.293Z,43.90
2022-12-01T06:14:56.779Z,48.20
2022-12-01T06:17:23.277Z,44.37
2022-12-01T06:19:49.922Z,50.90
2022-12-01T06:22:16.604Z,48.17
2022-12-01T06:24:43.043Z,45.50
2022-12-01T06:27:09.771Z,49.97
2022-12-01T06:29:48.002Z,51.73
2022-12-01T06:32:14.549Z,51.80
2022-12-01T06:34:41.093Z,50.53
2022-12-01T06:37:07.633Z,49.50
2022-12-01T06:39:34.058Z,51.07
2022-12-01T06:42:00.584Z,48.23
2022-12-01T06:44:27.125Z,52.80
2022-12-01T06:46:53.593Z,48.17
2022-12-01T06:49:20.410Z,49.70
2022-12-01T06:51:46.850Z,57.57
2022-12-01T06:54:14.388Z,50.80
2022-12-01T06:56:43.003Z,49.83
2022-12-01T06:59:09.958Z,45.40
2022-12-01T07:01:36.634Z,46.50
2022-12-01T07:04:03.392Z,45.30
2022-12-01T07:06:31.214Z,50.53
2022-12-01T07:08:58.012Z,46.67
2022-12-01T07:11:24.449Z,48.27
2022-12-01T07:13:55.842Z,69.80
2022-12-01T07:16:22.985Z,45.97
2022-12-01T07:18:50.067Z,46.27
2022-12-01T07:21:17.314Z,51.43
2022-12-01T07:23:43.729Z,47.67
2022-12-01T07:26:15.857Z,50.93
2022-12-01T07:28:43.356Z,56.23
2022-12-01T07:31:12.881Z,54.67
2022-12-01T07:33:39.749Z,57.03
2022-12-01T07:36:07.199Z,54.97
2022-12-01T07:38:35.417Z,57.27
2022-12-01T07:41:06.895Z,57.17
2022-12-01T07:43:33.953Z,50.43
2022-12-01T07:46:08.871Z,61.57
2022-12-01T07:48:39.420Z,55.60
2022-12-01T07:51:10.273Z,54.33
2022-12-01T07:53:37.133Z,58.87
2022-12-01T07:56:08.558Z,59.03
2022-12-01T07:58:35.596Z,59.80
2022-12-01T08:01:12.648Z,68.00
2022-12-01T08:03:40.155Z,67.37
2022-12-01T08:06:07.488Z,63.23
2022-12-01T08:08:35.159Z,70.40
2022-12-01T08:11:04.282Z,80.47
2022-12-01T08:13:31.605Z,75.13
2022-12-01T08:15:58.179Z,73.63
2022-12-01T08:18:24.820Z,82.90
2022-12-01T08:20:51.592Z,80.20
2022-12-01T08:23:17.990Z,67.33
2022-12-01T08:25:44.442Z,74.90
2022-12-01T08:28:10.967Z,74.40
2022-12-01T08:30:37.483Z,70.37
2022-12-01T08:33:03.957Z,70.17
2022-12-01T08:35:30.377Z,73.37
2022-12-01T08:37:56.839Z,71.53
2022-12-01T08:40:23.307Z,72.40
2022-12-01T08:42:52.012Z,71.50
2022-12-01T08:45:18.787Z,76.40
2022-12-01T08:47:45.285Z,79.47
2022-12-01T08:50:12.184Z,79.13
2022-12-01T08:52:38.718Z,73.17
2022-12-01T08:55:06.322Z,67.07
2022-12-01T08:57:33.064Z,63.87
2022-12-01T08:59:59.538Z,72.17
2022-12-01T09:02:26.403Z,64.70
2022-12-01T09:04:52.909Z,62.43
2022-12-01T09:07:26.107Z,66.43
2022-12-01T09:09:53.186Z,57.57
2022-12-01T09:12:19.801Z,62.47
2022-12-01T09:14:48.345Z,51.27
2022-12-01T09:17:16.448Z,53.47
2022-12-01T09:19:43.721Z,56.87
2022-12-01T09:22:11.198Z,54.30
2022-12-01T09:24:38.043Z,50.03
2022-12-01T09:27:04.701Z,57.23
2022-12-01T09:29:32.059Z,53.37
2022-12-01T09:31:59.717Z,47.13
2022-12-01T09:34:27.477Z,51.30
2022-12-01T09:36:58.467Z,50.43
2022-12-01T09:39:25.610Z,48.77
2022-12-01T09:41:58.347Z,51.93
2022-12-01T09:44:39.476Z,49.17
2022-12-01T09:47:12.561Z,49.50
2022-12-01T09:50:00.208Z,52.30
2022-12-01T09:52:29.179Z,52.90
2022-12-01T09:54:59.151Z,45.37
2022-12-01T09:57:38.405Z,45.70
2022-12-01T10:00:13.337Z,41.90
2022-12-01T10:02:46.780Z,46.80
2022-12-01T10:05:21.886Z,42.80
2022-12-01T10:08:03.943Z,42.73
2022-12-01T10:10:34.832Z,36.53
2022-12-01T10:13:01.347Z,41.63
2022-12-01T10:15:46.493Z,45.43
2022-12-01T10:18:42.210Z,39.13
2022-12-01T10:21:35.485Z,38.57
2022-12-01T10:24:14.166Z,39.00
2022-12-01T10:27:23.196Z,35.73
2022-12-01T10:30:01.758Z,39.60
2022-12-01T10:32:52.608Z,37.70
2022-12-01T10:35:25.595Z,35.20
2022-12-01T10:37:59.133Z,39.10
2022-12-01T10:40:27.417Z,38.77
2022-12-01T10:42:54.754Z,42.43
2022-12-01T10:45:43.027Z,45.47
2022-12-01T10:48:19.197Z,48.73
2022-12-01T10:50:47.718Z,48.57
2022-12-01T10:53:23.278Z,47.77
2022-12-01T10:55:57.951Z,48.83
2022-12-01T10:58:24.491Z,43.67
2022-12-01T11:01:01.437Z,52.83
2022-12-01T11:03:32.099Z,51.30
2022-12-01T11:06:01.399Z,46.20
2022-12-01T11:08:54.100Z,45.00
2022-12-01T11:11:36.172Z,47.00
2022-12-01T11:14:07.148Z,41.67
2022-12-01T11:16:42.687Z,46.90
2022-12-01T11:19:26.609Z,45.33
2022-12-01T11:21:57.286Z,41.87
2022-12-01T11:24:43.339Z,48.80
2022-12-01T11:27:21.127Z,44.13
2022-12-01T11:30:00.167Z,47.00
2022-12-01T11:32:32.455Z,48.93
2022-12-01T11:35:14.470Z,47.13
2022-12-01T11:37:54.824Z,47.37
2022-12-01T11:40:44.095Z,47.80
2022-12-01T11:43:23.424Z,50.33
2022-12-01T11:45:50.489Z,49.90
2022-12-01T11:48:29.036Z,50.47
2022-12-01T11:51:10.937Z,55.80
2022-12-01T11:53:40.065Z,52.77
2022-12-01T11:56:17.518Z,51.70
2022-12-01T11:58:46.582Z,53.60
2022-12-01T12:01:33.680Z,49.57
2022-12-01T12:04:28.240Z,48.63
2022-12-01T12:07:00.727Z,49.57
2022-12-01T12:10:08.482Z,50.23
2022-12-01T12:12:40.988Z,50.93
2022-12-01T12:15:43.402Z,49.63
2022-12-01T12:18:09.813Z,55.57
2022-12-01T12:20:40.901Z,51.77
2022-12-01T12:23:16.603Z,55.37
2022-12-01T12:25:59.760Z,53.60
2022-12-01T12:28:44.775Z,59.90
2022-12-01T12:31:22.734Z,59.37
2022-12-01T12:33:58.118Z,56.93
2022-12-01T12:36:24.499Z,54.77
2022-12-01T12:39:10.914Z,60.70
2022-12-01T12:41:45.854Z,62.43
2022-12-01T12:44:24.740Z,61.73
2022-12-01T12:47:04.492Z,64.17
2022-12-01T12:49:52.806Z,64.33
2022-12-01T12:52:34.511Z,64.00
2022-12-01T12:55:19.162Z,63.70
2022-12-01T12:57:55.283Z,61.03
2022-12-01T13:00:25.807Z,62.23
2022-12-01T13:03:22.073Z,68.63
2022-12-01T13:05:56.308Z,66.07
2022-12-01T13:08:33.929Z,74.87
2022-12-01T13:11:15.624Z,71.23
2022-12-01T13:13:54.549Z,71.33
2022-12-01T13:16:27.918Z,71.37
2022-12-01T13:19:03.071Z,70.10
2022-12-01T13:21:37.128Z,73.77
2022-12-01T13:24:05.482Z,74.37
2022-12-01T13:26:35.897Z,72.27
2022-12-01T13:29:06.348Z,81.63
2022-12-01T13:31:43.946Z,74.07
2022-12-01T13:34:20.944Z,72.47
2022-12-01T13:36:52.831Z,79.07
2022-12-01T13:39:26.517Z,71.50
2022-12-01T13:42:02.615Z,73.67
2022-12-01T13:44:37.303Z,76.67
2022-12-01T13:47:15.662Z,77.03
2022-12-01T13:49:51.032Z,72.80
2022-12-01T13:52:28.251Z,78.30
2022-12-01T13:55:07.321Z,80.13
2022-12-01T13:57:56.981Z,80.50
2022-12-01T14:00:29.759Z,78.90
2022-12-01T14:03:15.094Z,89.53
2022-12-01T14:05:57.033Z,82.93
2022-12-01T14:08:33.012Z,90.33
2022-12-01T14:11:23.152Z,83.73
2022-12-01T14:14:25.608Z,94.73
2022-12-01T14:17:02.553Z,85.57
2022-12-01T14:19:29.083Z,79.10
2022-12-01T14:21:57.658Z,91.13
2022-12-01T14:24:36.635Z,85.27
2022-12-01T14:27:07.850Z,89.03
2022-12-01T14:29:42.974Z,84.07
2022-12-01T14:32:09.345Z,87.63
2022-12-01T14:34:39.844Z,84.17
2022-12-01T14:37:16.922Z,83.10
2022-12-01T14:39:57.330Z,88.10
2022-12-01T14:43:01.207Z,92.87
2022-12-01T14:45:35.378Z,94.20
2022-12-01T14:48:21.519Z,88.30
2022-12-01T14:50:51.785Z,90.43
2022-12-01T14:53:25.743Z,91.63
2022-12-01T14:56:18.073Z,92.03
2022-12-01T14:58:53.325Z,92.13
2022-12-01T15:01:22.287Z,101.10
2022-12-01T15:03:51.561Z,91.77
2022-12-01T15:06:20.437Z,93.20
2022-12-01T15:09:31.658Z,89.03
2022-12-01T15:12:01.701Z,84.47
2022-12-01T15:14:37.625Z,94.43
2022-12-01T15:17:06.093Z,90.97
2022-12-01T15:19:38.977Z,91.30
2022-12-01T15:22:17.411Z,85.10
2022-12-01T15:24:44.457Z,89.83
2022-12-01T15:27:32.392Z,87.17
2022-12-01T15:30:04.461Z,89.90
2022-12-01T15:32:34.437Z,87.30
2022-12-01T15:35:01.995Z,93.50
2022-12-01T15:37:32.129Z,104.03
2022-12-01T15:43:03.024Z,96.40
2022-12-01T15:45:29.586Z,86.20
2022-12-01T15:47:56.111Z,82.47
2022-12-01T15:50:29.731Z,81.10
2022-12-01T15:53:02.719Z,83.13
2022-12-01T15:55:34.326Z,84.60
2022-12-01T15:58:02.380Z,83.53
2022-12-01T16:00:28.855Z,87.37
2022-12-01T16:02:58.143Z,81.70
2022-12-01T16:05:28.939Z,81.23
2022-12-01T16:10:42.302Z,89.70
2022-12-01T16:13:46.792Z,85.40
2022-12-01T16:16:21.141Z,86.07
2022-12-01T16:18:56.960Z,83.87
2022-12-01T16:21:24.959Z,87.27
2022-12-01T16:24:03.847Z,89.13
2022-12-01T16:26:31.702Z,81.60
2022-12-01T16:28:58.919Z,86.23
2022-12-01T16:31:27.091Z,87.87
2022-12-01T16:34:13.955Z,81.87
2022-12-01T16:36:45.180Z,79.20
2022-12-01T16:39:13.878Z,80.00
2022-12-01T16:41:44.596Z,96.07
2022-12-01T16:44:28.072Z,91.87
2022-12-01T16:46:55.855Z,87.50
2022-12-01T16:49:22.552Z,81.43
2022-12-01T16:51:55.881Z,88.50
2022-12-01T16:54:23.342Z,78.13
2022-12-01T16:56:49.858Z,82.77
2022-12-01T16:59:16.253Z,89.07
2022-12-01T17:01:42.727Z,88.17
2022-12-01T17:04:09.258Z,79.50
2022-12-01T17:06:36.090Z,90.17
2022-12-01T17:09:02.527Z,85.77
2022-12-01T17:11:28.981Z,88.83
2022-12-01T17:13:55.443Z,90.87
2022-12-01T17:16:21.945Z,96.83
2022-12-01T17:18:48.787Z,96.57
2022-12-01T17:21:15.381Z,99.83
2022-12-01T17:23:41.815Z,81.17
2022-12-01T17:26:12.492Z,79.27
2022-12-01T17:28:39.507Z,84.70
2022-12-01T17:31:07.090Z,84.63
2022-12-01T17:33:34.886Z,84.10
2022-12-01T17:36:07.561Z,79.83
2022-12-01T17:38:38.301Z,73.83
2022-12-01T17:41:16.657Z,78.97
2022-12-01T17:43:43.454Z,92.63
2022-12-01T17:46:12.220Z,79.93
2022-12-01T17:48:43.546Z,75.10
2022-12-01T17:51:11.404Z,77.73
2022-12-01T17:53:41.182Z,77.13
2022-12-01T17:56:09.980Z,78.10
2022-12-01T17:58:36.845Z,79.23
2022-12-01T18:01:04.691Z,79.87
2022-12-01T18:03:31.676Z,75.93
2022-12-01T18:06:00.339Z,75.57
2022-12-01T18:08:30.310Z,79.47
2022-12-01T18:11:01.228Z,84.07
2022-12-01T18:13:28.307Z,81.57
2022-12-01T18:15:54.798Z,77.80
2022-12-01T18:18:21.337Z,77.83
2022-12-01T18:20:47.742Z,84.00
2022-12-01T18:23:14.229Z,84.37
2022-12-01T18:25:40.872Z,86.27
2022-12-01T18:28:07.883Z,80.47
2022-12-01T18:30:34.372Z,81.23
2022-12-01T18:33:01.322Z,77.13
2022-12-01T18:35:31.795Z,87.57
2022-12-01T18:37:58.729Z,90.03
2022-12-01T18:40:25.203Z,93.83
2022-12-01T18:42:51.679Z,101.70
2022-12-01T18:45:21.187Z,93.17
2022-12-01T18:47:48.420Z,92.27
2022-12-01T18:50:14.981Z,90.40
2022-12-01T18:52:41.428Z,92.53
2022-12-01T18:55:08.162Z,89.43
2022-12-01T18:57:34.614Z,85.40
2022-12-01T19:00:01.495Z,95.50
2022-12-01T19:02:28.080Z,83.97
2022-12-01T19:04:54.651Z,89.00
2022-12-01T19:07:26.496Z,89.77
2022-12-01T19:09:55.946Z,89.03
2022-12-01T19:12:22.390Z,90.10
2022-12-01T19:14:49.123Z,84.73
2022-12-01T19:17:15.673Z,84.30
2022-12-01T19:19:42.128Z,81.87
2022-12-01T19:22:08.531Z,89.97
2022-12-01T19:24:34.972Z,86.10
2022-12-01T19:27:01.410Z,86.90
2022-12-01T19:29:28.382Z,80.83
2022-12-01T19:31:55.062Z,86.73
2022-12-01T19:34:21.617Z,88.00
2022-12-01T19:36:49.803Z,86.53
2022-12-01T19:39:16.274Z,87.27
2022-12-01T19:41:42.721Z,84.97
2022-12-01T19:44:09.907Z,77.57
2022-12-01T19:46:36.335Z,84.43
2022-12-01T19:49:03.686Z,76.90
2022-12-01T19:51:35.129Z,70.47
2022-12-01T19:54:02.999Z,70.70
2022-12-01T19:56:29.604Z,69.53
2022-12-01T19:58:57.162Z,63.27
2022-12-01T20:01:23.653Z,63.70
2022-12-01T20:03:52.254Z,61.23
2022-12-01T20:06:24.438Z,59.47
2022-12-01T20:08:51.903Z,62.63
2022-12-01T20:11:18.826Z,57.17
2022-12-01T20:13:47.014Z,58.77
2022-12-01T20:16:24.580Z,59.07
2022-12-01T20:18:52.026Z,48.67
2022-12-01T20:21:28.040Z,49.63
2022-12-01T20:24:00.414Z,51.30
2022-12-01T20:26:31.001Z,43.40
2022-12-01T20:29:04.369Z,47.60
2022-12-01T20:31:33.050Z,52.77
2022-12-01T20:34:02.533Z,59.70
2022-12-01T20:36:29.391Z,59.30
2022-12-01T20:38:56.209Z,47.43
2022-12-01T20:41:22.964Z,48.93
2022-12-01T20:43:49.707Z,51.63
2022-12-01T20:46:16.359Z,46.43
2022-12-01T20:48:43.062Z,52.33
2022-12-01T20:51:11.069Z,49.93
2022-12-01T20:53:37.734Z,47.87
2022-12-01T20:56:06.302Z,47.87
2022-12-01T20:58:37.522Z,49.80
2022-12-01T21:01:16.192Z,46.20
2022-12-01T21:03:44.006Z,48.90
2022-12-01T21:06:12.593Z,46.10
2022-12-01T21:08:40.707Z,50.50
2022-12-01T21:11:18.919Z,47.03
2022-12-01T21:13:46.698Z,55.23
2022-12-01T21:16:16.139Z,60.10
2022-12-01T21:19:00.214Z,54.60
2022-12-01T21:21:29.153Z,47.00
2022-12-01T21:24:07.730Z,51.03
2022-12-01T21:26:36.548Z,52.07
2022-12-01T21:29:27.726Z,52.80
2022-12-01T21:31:59.031Z,54.40
2022-12-01T21:34:28.612Z,53.90
2022-12-01T21:37:02.336Z,52.67
2022-12-01T21:39:30.190Z,50.30
2022-12-01T21:42:06.834Z,49.00
2022-12-01T21:44:37.349Z,56.07
2022-12-01T21:47:17.177Z,49.23
2022-12-01T21:49:45.333Z,47.40
2022-12-01T21:52:39.726Z,50.07
2022-12-01T21:55:15.244Z,46.17
2022-12-01T21:57:44.658Z,45.17
2022-12-01T22:00:30.950Z,49.27
2022-12-01T22:03:15.942Z,43.33
2022-12-01T22:06:01.209Z,45.80
2022-12-01T22:08:35.493Z,46.83
2022-12-01T22:11:11.042Z,48.00
2022-12-01T22:13:37.436Z,47.50
2022-12-01T22:16:04.125Z,45.20
2022-12-01T22:18:39.078Z,45.73
2022-12-01T22:21:24.176Z,48.40
2022-12-01T22:24:00.786Z,45.87
2022-12-01T22:26:27.493Z,59.77
2022-12-01T22:28:58.039Z,48.97
2022-12-01T22:31:25.207Z,46.27
2022-12-01T22:34:02.797Z,39.83
2022-12-01T22:36:31.720Z,52.33
2022-12-01T22:38:58.182Z,46.13
2022-12-01T22:41:26.538Z,46.67
2022-12-01T22:43:57.187Z,46.77
2022-12-01T22:46:34.490Z,53.50
2022-12-01T22:49:19.376Z,50.07
2022-12-01T22:51:50.089Z,48.20
2022-12-01T22:54:16.477Z,50.33
2022-12-01T22:56:47.496Z,48.23
2022-12-01T22:59:23.289Z,51.23
2022-12-01T23:01:54.699Z,83.43
2022-12-01T23:04:39.883Z,51.77
2022-12-01T23:07:20.044Z,52.97
2022-12-01T23:09:46.640Z,54.50
2022-12-01T23:12:13.057Z,48.10
2022-12-01T23:14:51.468Z,52.10
2022-12-01T23:17:28.914Z,50.60
2022-12-01T23:20:29.842Z,47.97
2022-12-01T23:22:58.510Z,52.83
2022-12-01T23:25:25.772Z,52.53
2022-12-01T23:27:53.757Z,55.77
2022-12-01T23:30:21.840Z,50.80
2022-12-01T23:32:57.538Z,63.20
2022-12-01T23:35:24.001Z,55.67
2022-12-01T23:37:52.759Z,62.50
2022-12-01T23:40:22.720Z,62.60
2022-12-01T23:42:49.652Z,62.00
2022-12-01T23:45:26.981Z,52.77
2022-12-01T23:47:55.241Z,59.10
2022-12-01T23:50:25.050Z,50.90
2022-12-01T23:52:51.830Z,51.27
2022-12-01T23:55:25.584Z,54.00
2022-12-01T23:57:52.993Z,51.87
